Time;durP1;ratioP1;P1;durP2;ratioP2;P2;SDS_P1;SDS_P2;PMS_P1;PMS_P2;Temp;Humidity;BMP_temperature;BMP_pressure;BME280_temperature;BME280_humidity;BME280_pressure;Samples;Min_cycle;Max_cycle;Signal;HPM_P1;HPM_P2
2022/09/25 00:01:40;;;;;;;1999.90;999.90;;;13.20;99.90;;;;;;4990685;28;20172;-76
2022/09/25 00:04:06;;;;;;;1999.90;999.90;;;13.20;99.90;;;;;;4992624;28;20039;-76
2022/09/25 00:06:32;;;;;;;1999.90;999.90;;;13.10;99.90;;;;;;4992806;28;20502;-77
2022/09/25 00:09:00;;;;;;;1999.90;999.90;;;13.10;99.90;;;;;;4992675;28;20034;-76
2022/09/25 00:11:29;;;;;;;1999.90;999.90;;;13.10;99.90;;;;;;4992477;28;20021;-80
2022/09/25 00:13:56;;;;;;;1999.90;999.90;;;13.00;99.90;;;;;;4992624;28;20075;-76
2022/09/25 00:16:26;;;;;;;1999.90;999.90;;;13.00;99.90;;;;;;4992062;28;20030;-76
2022/09/25 00:21:36;;;;;;;1999.90;999.90;;;12.90;99.90;;;;;;4992242;28;20165;-80
2022/09/25 00:24:06;;;;;;;1999.90;999.90;;;12.80;99.90;;;;;;4992017;28;20393;-76
2022/09/25 00:26:35;;;;;;;1999.90;999.90;;;12.80;99.90;;;;;;4992795;28;20053;-76
2022/09/25 00:29:01;;;;;;;1999.90;999.90;;;12.70;99.90;;;;;;4992455;28;20153;-76
2022/09/25 00:31:28;;;;;;;1999.90;999.90;;;12.60;99.90;;;;;;4991813;28;20026;-80
2022/09/25 00:33:57;;;;;;;1999.90;999.90;;;12.60;99.90;;;;;;4992018;28;20033;-80
2022/09/25 00:36:23;;;;;;;1999.90;999.90;;;12.50;99.90;;;;;;4992568;28;20030;-80
2022/09/25 00:38:49;;;;;;;1999.90;999.90;;;12.40;99.90;;;;;;4991039;28;20031;-80
2022/09/25 00:41:17;;;;;;;1999.90;999.90;;;12.40;99.90;;;;;;4992346;28;20467;-76
2022/09/25 00:43:47;;;;;;;1999.90;999.90;;;12.40;99.90;;;;;;4992135;28;20045;-80
2022/09/25 00:46:33;;;;;;;1999.90;999.90;;;12.40;99.90;;;;;;4992456;28;20026;-80
2022/09/25 00:49:14;;;;;;;1999.90;999.90;;;12.30;99.90;;;;;;4990934;28;20031;-80
2022/09/25 00:51:51;;;;;;;1999.90;999.90;;;12.30;99.90;;;;;;4992170;28;20061;-76
2022/09/25 00:54:23;;;;;;;1999.90;999.90;;;12.20;99.90;;;;;;4991189;28;20161;-76
2022/09/25 00:56:51;;;;;;;1999.90;999.90;;;12.20;99.90;;;;;;4992479;28;20375;-76
2022/09/25 00:59:21;;;;;;;1999.90;999.90;;;12.20;99.90;;;;;;4992571;28;20061;-80
2022/09/25 01:01:47;;;;;;;1999.90;999.90;;;12.20;99.90;;;;;;4992330;28;20026;-80
2022/09/25 01:04:13;;;;;;;1999.90;999.90;;;12.10;99.90;;;;;;4991453;28;20038;-76
2022/09/25 01:06:40;;;;;;;1999.90;999.90;;;12.10;99.90;;;;;;4992178;28;20069;-76
2022/09/25 01:09:06;;;;;;;1999.90;999.90;;;12.10;99.90;;;;;;4993696;28;20027;-76
2022/09/25 01:11:32;;;;;;;1999.90;999.90;;;12.10;99.90;;;;;;4995786;28;20027;-76
2022/09/25 01:14:02;;;;;;;1999.90;999.90;;;12.10;99.90;;;;;;4995881;28;20378;-80
2022/09/25 01:16:36;;;;;;;1999.90;999.90;;;12.10;99.90;;;;;;4993673;28;20057;-80
2022/09/25 01:19:24;;;;;;;1999.90;999.90;;;12.00;99.90;;;;;;4995431;28;20034;-76
2022/09/25 01:22:04;;;;;;;1999.90;999.90;;;12.00;99.90;;;;;;4995594;28;20033;-76
2022/09/25 01:24:55;;;;;;;1999.90;999.90;;;11.90;99.90;;;;;;4995671;28;20129;-76
2022/09/25 01:27:33;;;;;;;1999.90;999.90;;;11.90;99.90;;;;;;4995694;28;20053;-76
2022/09/25 01:30:06;;;;;;;1999.90;999.90;;;11.80;99.90;;;;;;4995422;28;20023;-80
2022/09/25 01:32:51;;;;;;;1999.90;999.90;;;11.80;99.90;;;;;;4994141;28;20022;-76
2022/09/25 01:35:31;;;;;;;1999.90;999.90;;;11.80;99.90;;;;;;4995500;28;20050;-76
2022/09/25 01:38:19;;;;;;;1999.90;999.90;;;11.80;99.90;;;;;;4994891;28;20078;-76
2022/09/25 01:40:59;;;;;;;1999.90;999.90;;;11.70;99.90;;;;;;4995742;28;20393;-80
2022/09/25 01:43:35;;;;;;;1999.90;999.90;;;11.70;99.90;;;;;;4995300;28;20030;-80
2022/09/25 01:46:14;;;;;;;1999.90;999.90;;;11.60;99.90;;;;;;4995200;28;20363;-76
2022/09/25 01:48:43;;;;;;;1999.90;999.90;;;11.60;99.90;;;;;;4995205;28;20090;-80
2022/09/25 01:51:20;;;;;;;1999.90;999.90;;;11.60;99.90;;;;;;4994847;28;20093;-80
2022/09/25 01:53:51;;;;;;;1999.90;999.90;;;11.60;99.90;;;;;;4995220;28;20033;-80
2022/09/25 01:56:31;;;;;;;1999.90;999.90;;;11.60;99.90;;;;;;4993931;28;20114;-80
2022/09/25 01:59:03;;;;;;;1999.90;999.90;;;11.60;99.90;;;;;;4995080;28;20033;-76
2022/09/25 02:01:34;;;;;;;1999.90;999.90;;;11.50;99.90;;;;;;4994972;28;20027;-76
2022/09/25 02:04:07;;;;;;;1999.90;999.90;;;11.50;99.90;;;;;;4993984;28;20387;-80
2022/09/25 02:06:37;;;;;;;1999.90;999.90;;;11.50;99.90;;;;;;4995016;28;20422;-80
2022/09/25 02:09:07;;;;;;;1999.90;999.90;;;11.40;99.90;;;;;;4994771;28;20497;-76
2022/09/25 02:11:43;;;;;;;1999.90;999.90;;;11.40;99.90;;;;;;4994512;28;20038;-75
2022/09/25 02:14:18;;;;;;;1999.90;999.90;;;11.30;99.90;;;;;;4994785;28;20134;-75
2022/09/25 02:16:49;;;;;;;1999.90;999.90;;;11.30;99.90;;;;;;4992872;28;20112;-76
2022/09/25 02:22:18;;;;;;;1999.90;999.90;;;11.30;99.90;;;;;;5002838;28;20043;-80
2022/09/25 02:24:53;;;;;;;1999.90;999.90;;;11.30;99.90;;;;;;4994622;28;20018;-76
2022/09/25 02:27:19;;;;;;;1999.90;999.90;;;11.20;99.90;;;;;;4994563;28;20030;-75
2022/09/25 02:29:45;;;;;;;1999.90;999.90;;;11.20;99.90;;;;;;4994384;28;20025;-79
2022/09/25 02:32:14;;;;;;;1999.90;999.90;;;11.20;99.90;;;;;;4992960;28;20026;-80
2022/09/25 02:34:41;;;;;;;1999.90;999.90;;;11.20;99.90;;;;;;4994705;28;20169;-80
2022/09/25 02:37:16;;;;;;;1999.90;999.90;;;11.20;99.90;;;;;;4994074;28;20034;-76
2022/09/25 02:39:46;;;;;;;1999.90;999.90;;;11.20;99.90;;;;;;4993183;28;20389;-80
2022/09/25 02:42:43;;;;;;;1999.90;999.90;;;11.20;99.90;;;;;;4994325;28;20026;-80
2022/09/25 02:45:30;;;;;;;1999.90;999.90;;;11.20;99.90;;;;;;4994126;28;20054;-80
2022/09/25 02:48:33;;;;;;;1999.90;999.90;;;11.10;99.90;;;;;;4993949;28;20397;-80
2022/09/25 02:51:18;;;;;;;1999.90;999.90;;;11.10;99.90;;;;;;4994290;28;20018;-76
2022/09/25 02:53:58;;;;;;;1999.90;999.90;;;11.10;99.90;;;;;;4994012;28;20030;-80
2022/09/25 02:56:46;;;;;;;1999.90;999.90;;;11.00;99.90;;;;;;4992746;28;20023;-76
2022/09/25 02:59:20;;;;;;;1999.90;999.90;;;10.90;99.90;;;;;;4993835;28;20036;-80
2022/09/25 03:01:46;;;;;;;1999.90;999.90;;;10.90;99.90;;;;;;4993891;28;20540;-76
2022/09/25 03:04:14;;;;;;;1999.90;999.90;;;10.80;99.90;;;;;;4993052;28;20444;-76
2022/09/25 03:06:41;;;;;;;1999.90;999.90;;;10.80;99.90;;;;;;4993841;28;20579;-75
2022/09/25 03:09:09;;;;;;;1999.90;999.90;;;10.80;99.90;;;;;;4993749;28;20046;-80
2022/09/25 03:11:40;;;;;;;1999.90;999.90;;;10.70;99.90;;;;;;4993484;28;20030;-80
2022/09/25 03:14:06;;;;;;;1999.90;999.90;;;10.70;99.90;;;;;;4993703;28;20030;-79
2022/09/25 03:16:39;;;;;;;1999.90;999.90;;;10.60;99.90;;;;;;4991703;28;20027;-76
2022/09/25 03:19:04;;;;;;;;;;;10.60;99.90;;;;;;4993708;28;20540;-75
2022/09/25 03:21:31;;;;;;;1999.90;999.90;;;10.60;99.90;;;;;;4993279;28;19945;-75
2022/09/25 03:23:57;;;;;;;1999.90;999.90;;;10.60;99.90;;;;;;4993138;28;20045;-80
2022/09/25 03:26:24;;;;;;;1999.90;999.90;;;10.60;99.90;;;;;;4993713;28;20449;-79
2022/09/25 03:28:50;;;;;;;1999.90;999.90;;;10.60;99.90;;;;;;4993497;28;20033;-76
2022/09/25 03:31:17;;;;;;;1999.90;999.90;;;10.50;99.90;;;;;;4992706;28;20038;-75
2022/09/25 03:33:43;;;;;;;1999.90;999.90;;;10.50;99.90;;;;;;4991758;28;20026;-76
2022/09/25 03:36:20;;;;;;;1999.90;999.90;;;10.50;99.90;;;;;;4993375;28;20076;-76
2022/09/25 03:38:48;;;;;;;1999.90;999.90;;;10.40;99.90;;;;;;4988212;28;20034;-80
2022/09/25 03:41:15;;;;;;;1999.90;999.90;;;10.40;99.90;;;;;;4973714;28;20030;-75
2022/09/25 03:43:42;;;;;;;1999.90;999.90;;;10.30;99.90;;;;;;4973655;28;20029;-76
2022/09/25 03:46:11;;;;;;;1999.90;999.90;;;10.30;99.90;;;;;;4972408;28;20027;-75
2022/09/25 03:48:36;;;;;;;1999.90;999.90;;;10.30;99.90;;;;;;4973620;28;20027;-79
2022/09/25 03:51:03;;;;;;;1999.90;999.90;;;10.30;99.90;;;;;;4972424;28;20034;-80
2022/09/25 03:53:32;;;;;;;1999.90;999.90;;;10.20;99.90;;;;;;4973421;28;20058;-80
2022/09/25 03:56:07;;;;;;;1999.90;999.90;;;10.20;99.90;;;;;;4973449;28;20129;-75
2022/09/25 03:58:33;;;;;;;1999.90;999.90;;;10.20;99.90;;;;;;4972242;28;20035;-76
2022/09/25 04:01:00;;;;;;;1999.90;999.90;;;10.20;99.90;;;;;;4973139;28;20034;-80
2022/09/25 04:03:27;;;;;;;1999.90;999.90;;;10.20;99.90;;;;;;4973062;28;20363;-76
2022/09/25 04:05:57;;;;;;;1999.90;999.90;;;10.20;99.90;;;;;;4972490;28;20106;-76
2022/09/25 04:08:25;;;;;;;1999.90;999.90;;;10.20;99.90;;;;;;4973287;28;20050;-76
2022/09/25 04:10:51;;;;;;;1999.90;999.90;;;10.20;99.90;;;;;;4973516;28;20446;-76
2022/09/25 04:13:18;;;;;;;1999.90;999.90;;;10.10;99.90;;;;;;4971774;28;20041;-80
2022/09/25 04:15:44;;;;;;;1999.90;999.90;;;10.10;99.90;;;;;;4971911;28;20026;-79
2022/09/25 04:18:09;;;;;;;1999.90;999.90;;;10.10;99.90;;;;;;4989652;28;20034;-80
2022/09/25 04:20:37;;;;;;;1999.90;999.90;;;10.10;99.90;;;;;;4992471;28;20029;-75
2022/09/25 04:23:03;;;;;;;1999.90;999.90;;;10.10;99.90;;;;;;4992519;28;20054;-75
2022/09/25 04:25:28;;;;;;;1999.90;999.90;;;10.00;99.90;;;;;;4992355;28;20525;-80
2022/09/25 04:27:55;;;;;;;1999.90;999.90;;;10.00;99.90;;;;;;4991193;28;20406;-75
2022/09/25 04:30:26;;;;;;;1999.90;999.90;;;10.00;99.90;;;;;;4992677;28;20026;-80
2022/09/25 04:35:36;;;;;;;1999.90;999.90;;;10.00;99.90;;;;;;4992666;28;20572;-76
2022/09/25 04:38:02;;;;;;;1999.90;999.90;;;10.00;99.90;;;;;;4992150;28;20064;-80
2022/09/25 04:40:29;;;;;;;1999.90;999.90;;;10.00;99.90;;;;;;4992478;28;20038;-76
2022/09/25 04:42:57;;;;;;;1999.90;999.90;;;10.00;99.90;;;;;;4992569;28;20030;-80
2022/09/25 04:45:22;;;;;;;1999.90;999.90;;;10.00;99.90;;;;;;4994971;28;20027;-80
2022/09/25 04:47:48;;;;;;;1999.90;999.90;;;10.00;99.90;;;;;;4996142;28;20034;-75
2022/09/25 04:50:14;;;;;;;1999.90;999.90;;;10.00;99.90;;;;;;4996456;28;20022;-75
2022/09/25 04:52:39;;;;;;;1999.90;999.90;;;10.00;99.90;;;;;;4996442;28;20140;-76
2022/09/25 04:55:05;;;;;;;1999.90;999.90;;;10.00;99.90;;;;;;4996240;28;20033;-80
2022/09/25 04:57:32;;;;;;;1999.90;999.90;;;10.00;99.90;;;;;;4994874;28;20035;-80
2022/09/25 04:59:58;;;;;;;1999.90;999.90;;;10.00;99.90;;;;;;4996164;28;20049;-75
2022/09/25 05:02:27;;;;;;;1999.90;999.90;;;10.10;99.90;;;;;;4996101;28;20497;-75
2022/09/25 05:04:53;;;;;;;1999.90;999.90;;;10.00;99.90;;;;;;4996369;28;20030;-80
2022/09/25 05:07:18;;;;;;;1999.90;999.90;;;10.10;99.90;;;;;;4995649;28;20042;-75
2022/09/25 05:09:44;;;;;;;1999.90;999.90;;;10.10;99.90;;;;;;4995826;28;20023;-80
2022/09/25 05:12:09;;;;;;;1999.90;999.90;;;10.00;99.90;;;;;;4995747;28;20397;-75
2022/09/25 05:14:35;;;;;;;1999.90;999.90;;;10.00;99.90;;;;;;4995787;28;20030;-76
2022/09/25 05:17:01;;;;;;;1999.90;999.90;;;10.00;99.90;;;;;;4993360;28;20523;-75
2022/09/25 05:19:26;;;;;;;1999.90;999.90;;;10.00;99.90;;;;;;4995242;28;20037;-76
2022/09/25 05:21:52;;;;;;;1999.90;999.90;;;10.10;99.90;;;;;;4995603;28;20040;-79
2022/09/25 05:24:18;;;;;;;1999.90;999.90;;;10.10;99.90;;;;;;4995542;28;20037;-80
2022/09/25 05:26:44;;;;;;;1999.90;999.90;;;10.10;99.90;;;;;;4995997;28;20101;-75
2022/09/25 05:29:09;;;;;;;1999.90;999.90;;;10.20;99.90;;;;;;4995596;28;20030;-76
2022/09/25 05:31:36;;;;;;;1999.90;999.90;;;10.30;99.90;;;;;;4994208;28;20053;-80
2022/09/25 05:34:01;;;;;;;1999.90;999.90;;;10.40;99.90;;;;;;4995388;28;20043;-80
2022/09/25 05:36:27;;;;;;;1999.90;999.90;;;10.50;99.90;;;;;;4990573;28;20035;-79
2022/09/25 05:38:53;;;;;;;1999.90;999.90;;;10.60;99.90;;;;;;4993955;28;20078;-75
2022/09/25 05:41:19;;;;;;;1999.90;999.90;;;10.80;99.90;;;;;;4994115;28;20030;-75
2022/09/25 05:43:46;;;;;;;1999.90;999.90;;;11.00;99.90;;;;;;4994969;28;20057;-76
2022/09/25 05:46:12;;;;;;;1999.90;999.90;;;11.10;99.90;;;;;;4995644;28;20030;-80
2022/09/25 05:48:38;;;;;;;1999.90;999.90;;;11.20;99.90;;;;;;4995279;28;20022;-80
2022/09/25 05:51:04;;;;;;;1999.90;999.90;;;11.30;99.90;;;;;;4995287;28;20030;-76
2022/09/25 05:53:29;;;;;;;1999.90;999.90;;;11.30;99.90;;;;;;4995029;28;20026;-75
2022/09/25 05:55:57;;;;;;;1999.90;999.90;;;11.40;99.90;;;;;;4994585;28;20038;-79
2022/09/25 05:58:24;;;;;;;1999.90;999.90;;;11.50;99.90;;;;;;4995248;28;20030;-80
2022/09/25 06:00:50;;;;;;;1999.90;999.90;;;11.60;99.90;;;;;;4995378;28;20489;-80
2022/09/25 06:03:17;;;;;;;1999.90;999.90;;;11.60;99.90;;;;;;4994626;28;20030;-75
2022/09/25 06:05:45;;;;;;;1999.90;999.90;;;11.60;99.90;;;;;;4993328;28;20430;-75
2022/09/25 06:08:12;;;;;;;1999.90;999.90;;;11.70;99.90;;;;;;4993985;28;20508;-75
2022/09/25 06:10:38;;;;;;;1999.90;999.90;;;11.70;99.90;;;;;;4995093;28;20435;-75
2022/09/25 06:13:04;;;;;;;1999.90;999.90;;;11.80;99.90;;;;;;4993451;28;20022;-75
2022/09/25 06:15:38;;;;;;;1999.90;999.90;;;11.80;99.90;;;;;;4993452;28;20039;-75
2022/09/25 06:18:05;;;;;;;1999.90;999.90;;;11.90;99.90;;;;;;4992256;28;20026;-75
2022/09/25 06:20:31;;;;;;;1999.90;999.90;;;12.00;99.90;;;;;;4993193;28;20030;-75
2022/09/25 06:22:58;;;;;;;1999.90;999.90;;;12.00;99.90;;;;;;4994645;28;20054;-79
2022/09/25 06:25:27;;;;;;;1999.90;999.90;;;12.10;99.90;;;;;;4994386;28;20516;-75
2022/09/25 06:27:56;;;;;;;1999.90;999.90;;;12.10;99.90;;;;;;4994463;28;20022;-75
2022/09/25 06:30:26;;;;;;;1999.90;999.90;;;12.30;99.90;;;;;;4994680;28;20474;-75
2022/09/25 06:32:59;;;;;;;1999.90;999.90;;;12.30;99.90;;;;;;4993012;28;20026;-76
2022/09/25 06:35:25;;;;;;;;;;;12.40;99.90;;;;;;4993391;28;20490;-75
2022/09/25 06:37:51;;;;;;;1999.90;999.90;;;12.50;99.90;;;;;;4994273;28;19916;-79
2022/09/25 06:40:17;;;;;;;1999.90;999.90;;;12.50;99.90;;;;;;4975839;28;20457;-75
2022/09/25 06:42:44;;;;;;;1999.90;999.90;;;12.60;99.90;;;;;;4975123;28;20440;-75
2022/09/25 06:45:10;;;;;;;1999.90;999.90;;;12.60;99.90;;;;;;4974778;28;20030;-75
2022/09/25 06:47:36;;;;;;;1999.90;999.90;;;12.70;99.90;;;;;;4974480;28;20033;-75
2022/09/25 06:50:02;;;;;;;1999.90;999.90;;;12.80;99.90;;;;;;4974878;28;20030;-80
2022/09/25 06:52:28;;;;;;;1999.90;999.90;;;12.80;99.90;;;;;;4973564;28;20031;-80
2022/09/25 06:54:53;;;;;;;1999.90;999.90;;;12.90;99.90;;;;;;4974756;28;20027;-78
2022/09/25 06:57:19;;;;;;;1999.90;999.90;;;13.00;99.90;;;;;;4973291;28;20038;-73
2022/09/25 06:59:45;;;;;;;1999.90;999.90;;;13.00;99.90;;;;;;4974462;28;20034;-73
2022/09/25 07:04:54;;;;;;;1999.90;999.90;;;13.10;99.90;;;;;;4974570;28;20056;-78
2022/09/25 07:07:20;;;;;;;1999.90;999.90;;;13.20;99.90;;;;;;4973066;28;20038;-73
2022/09/25 07:09:49;;;;;;;1999.90;999.90;;;13.20;99.90;;;;;;4973871;28;20023;-73
2022/09/25 07:12:17;;;;;;;1999.90;999.90;;;13.10;99.90;;;;;;4974086;28;20132;-73
2022/09/25 07:14:45;;;;;;;1999.90;999.90;;;13.10;99.90;;;;;;4974515;28;20055;-78
2022/09/25 07:17:12;;;;;;;1999.90;999.90;;;13.20;99.90;;;;;;4982847;28;20037;-78
2022/09/25 07:19:37;;;;;;;1999.90;999.90;;;13.30;99.90;;;;;;4993119;28;20120;-73
2022/09/25 07:22:03;;;;;;;1999.90;999.90;;;13.30;99.90;;;;;;4993461;28;20062;-73
2022/09/25 07:24:30;;;;;;;1999.90;999.90;;;13.30;99.90;;;;;;4993443;28;20022;-76
2022/09/25 07:26:55;;;;;;;1999.90;999.90;;;13.30;99.90;;;;;;4993673;28;20025;-75
2022/09/25 07:29:21;;;;;;;1999.90;999.90;;;13.20;99.90;;;;;;4993252;28;20122;-80
2022/09/25 07:31:46;;;;;;;1999.90;999.90;;;13.20;99.90;;;;;;4992919;28;20026;-80
2022/09/25 07:34:12;;;;;;;1999.90;999.90;;;13.30;99.90;;;;;;4991715;28;20032;-80
2022/09/25 07:36:39;;;;;;;1999.90;999.90;;;13.40;99.90;;;;;;4992135;28;20073;-76
2022/09/25 07:39:05;;;;;;;1999.90;999.90;;;13.50;99.90;;;;;;4985568;28;20033;-75
2022/09/25 07:41:31;;;;;;;1999.90;999.90;;;13.50;99.90;;;;;;4973759;28;20395;-80
2022/09/25 07:43:57;;;;;;;1999.90;999.90;;;13.40;99.90;;;;;;4973627;28;20027;-80
2022/09/25 07:46:25;;;;;;;1999.90;999.90;;;13.40;99.90;;;;;;4973762;28;20057;-80
2022/09/25 07:48:51;;;;;;;1999.90;999.90;;;13.40;99.90;;;;;;4972125;28;20037;-76
2022/09/25 07:51:17;;;;;;;1999.90;999.90;;;13.60;99.90;;;;;;4972364;28;20027;-76
2022/09/25 07:53:44;;;;;;;1999.90;999.90;;;13.60;99.90;;;;;;4982661;28;20085;-75
2022/09/25 07:56:11;;;;;;;1999.90;999.90;;;13.70;99.90;;;;;;4992964;28;20100;-75
2022/09/25 07:58:37;;;;;;;1999.90;999.90;;;13.80;99.90;;;;;;4993132;28;20109;-75
2022/09/25 08:01:05;;;;;;;1999.90;999.90;;;14.00;99.90;;;;;;4992861;28;20493;-76
2022/09/25 08:03:31;;;;;;;1999.90;999.90;;;14.00;99.90;;;;;;4992360;28;20022;-75
2022/09/25 08:05:58;;;;;;;1999.90;999.90;;;13.90;99.90;;;;;;4992652;28;20506;-75
2022/09/25 08:08:25;;;;;;;1999.90;999.90;;;14.00;99.90;;;;;;4992246;28;20037;-80
2022/09/25 08:10:52;;;;;;;1999.90;999.90;;;14.20;99.90;;;;;;4992992;28;20015;-80
2022/09/25 08:13:20;;;;;;;1999.90;999.90;;;14.30;99.90;;;;;;4991180;28;20477;-76
2022/09/25 08:15:47;;;;;;;1999.90;999.90;;;14.50;99.90;;;;;;4992649;28;20018;-76
2022/09/25 08:18:13;;;;;;;1999.90;999.90;;;14.50;99.90;;;;;;4982477;28;20027;-75
2022/09/25 08:20:39;;;;;;;1999.90;999.90;;;14.50;99.90;;;;;;4973235;28;20090;-76
2022/09/25 08:23:06;;;;;;;1999.90;999.90;;;14.50;99.90;;;;;;4971802;28;20035;-80
2022/09/25 08:25:31;;;;;;;1999.90;999.90;;;14.60;99.90;;;;;;4973107;28;20416;-80
2022/09/25 08:27:57;;;;;;;1999.90;999.90;;;14.80;99.90;;;;;;4971708;28;20031;-75
2022/09/25 08:30:23;;;;;;;1999.90;999.90;;;14.80;99.90;;;;;;4973040;28;20023;-76
2022/09/25 08:32:51;;;;;;;1999.90;999.90;;;14.90;99.90;;;;;;4973019;28;20023;-80
2022/09/25 08:35:17;;;;;;;1999.90;999.90;;;15.00;99.90;;;;;;4973160;28;20034;-76
2022/09/25 08:37:44;;;;;;;1999.90;999.90;;;15.10;99.90;;;;;;4972858;28;20045;-80
2022/09/25 08:40:38;;;;;;;1999.90;999.90;;;15.10;99.90;;;;;;5001078;28;20027;-76
2022/09/25 08:43:04;;;;;;;1999.90;999.90;;;15.20;99.90;;;;;;4972859;28;20055;-76
2022/09/25 08:51:13;;;;;;;1999.90;999.90;;;16.30;99.90;;;;;;4973323;28;20033;-80
2022/09/25 08:53:43;;;;;;;1999.90;999.90;;;16.60;99.90;;;;;;4972935;28;20030;-76
2022/09/25 08:56:13;;;;;;;1999.90;999.90;;;16.60;99.90;;;;;;4987644;28;20101;-76
2022/09/25 08:58:49;;;;;;;1999.90;999.90;;;16.70;99.90;;;;;;4973154;28;20505;-81
2022/09/25 09:01:20;;;;;;;1999.90;999.90;;;16.60;99.90;;;;;;4987664;28;20472;-76
2022/09/25 09:04:26;;;;;;;1999.90;999.90;;;16.90;99.90;;;;;;4972506;28;20034;-76
2022/09/25 09:06:57;;;;;;;1999.90;999.90;;;17.00;99.90;;;;;;4972879;28;20047;-76
2022/09/25 09:09:40;;;;;;;1999.90;999.90;;;16.80;99.90;;;;;;4971969;28;20506;-76
2022/09/25 09:12:46;;;;;;;1999.90;999.90;;;16.60;99.90;;;;;;4972598;28;20030;-80
2022/09/25 09:15:28;;;;;;;1999.90;999.90;;;16.30;99.90;;;;;;4972742;28;20038;-81
2022/09/25 09:17:54;;;;;;;1999.90;999.90;;;16.50;99.90;;;;;;4981314;28;20371;-80
2022/09/25 09:20:36;;;;;;;1999.90;999.90;;;16.70;99.90;;;;;;4972504;28;20030;-80
2022/09/25 09:23:03;;;;;;;1999.90;999.90;;;16.80;99.90;;;;;;4972574;28;20461;-76
2022/09/25 09:25:42;;;;;;;1999.90;999.90;;;16.80;99.90;;;;;;4971225;28;20035;-76
2022/09/25 09:28:26;;;;;;;1999.90;999.90;;;16.90;99.90;;;;;;4972615;28;20064;-81
2022/09/25 09:31:07;;;;;;;1999.90;999.90;;;17.00;99.90;;;;;;4975506;28;20073;-81
2022/09/25 09:33:44;;;;;;;1999.90;999.90;;;17.30;99.90;;;;;;4975886;28;20105;-76
2022/09/25 09:36:28;;;;;;;1999.90;999.90;;;17.50;99.90;;;;;;4976046;28;20038;-76
2022/09/25 09:39:12;;;;;;;1999.90;999.90;;;17.50;99.90;;;;;;4980658;28;20030;-80
2022/09/25 09:41:40;;;;;;;1999.90;999.90;;;17.70;99.90;;;;;;4994159;28;20033;-81
2022/09/25 09:44:32;;;;;;;1999.90;999.90;;;17.70;99.90;;;;;;4995151;28;20038;-81
2022/09/25 09:47:32;;;;;;;1999.90;999.90;;;17.70;99.90;;;;;;4995535;28;20025;-76
2022/09/25 09:50:19;;;;;;;1999.90;999.90;;;18.10;99.90;;;;;;4995224;28;20049;-76
2022/09/25 09:52:49;;;;;;;1999.90;999.90;;;18.50;99.90;;;;;;4995520;28;20033;-77
2022/09/25 09:55:25;;;;;;;1999.90;999.90;;;19.00;99.90;;;;;;4995220;28;20402;-81
2022/09/25 09:57:58;;;;;;;1999.90;999.90;;;18.80;99.90;;;;;;4995031;28;20436;-77
2022/09/25 10:00:24;;;;;;;1999.90;999.90;;;19.10;99.90;;;;;;4995137;28;20034;-76
2022/09/25 10:03:04;;;;;;;1999.90;999.90;;;19.40;99.90;;;;;;4994968;28;20034;-80
2022/09/25 10:05:36;;;;;;;1999.90;999.90;;;19.20;99.90;;;;;;4995045;28;20133;-81
2022/09/25 10:08:02;;;;;;;1999.90;999.90;;;19.20;99.90;;;;;;4993679;28;20040;-77
2022/09/25 10:10:41;;;;;;;1999.90;999.90;;;19.30;99.90;;;;;;4994183;28;20138;-81
2022/09/25 10:13:35;;;;;;;1999.90;999.90;;;19.30;99.90;;;;;;4994729;28;20149;-77
2022/09/25 10:16:37;;;;;;;1999.90;999.90;;;18.90;99.90;;;;;;4993516;28;20042;-81
2022/09/25 10:19:24;;;;;;;1999.90;999.90;;;18.30;99.90;;;;;;4998945;28;20025;-81
2022/09/25 10:22:05;;;;;;;1999.90;999.90;;;17.80;99.90;;;;;;5012143;28;20038;-81
2022/09/25 10:24:54;;;;;;;1999.90;999.90;;;17.70;99.90;;;;;;5011948;28;20030;-77
2022/09/25 10:27:34;;;;;;;1999.90;999.90;;;17.90;99.90;;;;;;5011955;28;20610;-77
2022/09/25 10:30:09;;;;;;;1999.90;999.90;;;18.20;99.90;;;;;;5011963;28;20500;-77
2022/09/25 10:33:01;;;;;;;1999.90;999.90;;;18.40;99.90;;;;;;5011818;28;20503;-77
2022/09/25 10:35:42;;;;;;;1999.90;999.90;;;18.10;99.90;;;;;;5011939;28;20738;-81
2022/09/25 10:38:31;;;;;;;1999.90;999.90;;;18.10;99.90;;;;;;5011641;28;20030;-81
2022/09/25 10:41:12;;;;;;;1999.90;999.90;;;18.10;99.90;;;;;;5011552;28;20088;-81
2022/09/25 10:43:59;;;;;;;1999.90;999.90;;;18.00;99.90;;;;;;5011583;28;20068;-77
2022/09/25 10:52:09;;;;;;;1999.90;999.90;;;17.40;99.90;;;;;;5007281;28;20108;-77
2022/09/25 10:54:35;;;;;;;1999.90;999.90;;;17.40;99.90;;;;;;4975003;28;20117;-77
2022/09/25 10:57:24;;;;;;;1999.90;999.90;;;17.60;99.90;;;;;;4974633;28;20474;-81
2022/09/25 10:59:51;;;;;;;1999.90;999.90;;;18.10;99.90;;;;;;4989047;28;20042;-81
2022/09/25 11:02:38;;;;;;;1999.90;999.90;;;19.20;99.90;;;;;;4974290;28;20098;-76
2022/09/25 11:05:17;;;;;;;1999.90;999.90;;;20.00;99.90;;;;;;4974664;28;20479;-77
2022/09/25 11:07:56;;;;;;;1999.90;999.90;;;20.30;99.90;;;;;;4973944;28;20109;-81
2022/09/25 11:10:35;;;;;;;1999.90;999.90;;;20.40;99.90;;;;;;4974357;28;20022;-81
2022/09/25 11:13:14;;;;;;;1999.90;999.90;;;20.50;99.90;;;;;;4974165;28;20023;-77
2022/09/25 11:15:52;;;;;;;1999.90;999.90;;;20.50;99.90;;;;;;4989195;28;20043;-81
2022/09/25 11:19:10;;;;;;;1999.90;999.90;;;20.50;99.90;;;;;;4992745;28;20041;-77
2022/09/25 11:21:43;;;;;;;1999.90;999.90;;;20.10;99.90;;;;;;5010760;28;20034;-77
2022/09/25 11:24:19;;;;;;;1999.90;999.90;;;20.40;99.90;;;;;;5010713;28;20041;-77
2022/09/25 11:26:58;;;;;;;1999.90;999.90;;;20.40;99.90;;;;;;5011040;28;20060;-81
2022/09/25 11:29:45;;;;;;;1999.90;999.90;;;20.60;99.90;;;;;;5010857;28;20040;-77
2022/09/25 11:32:38;;;;;;;1999.90;999.90;;;20.60;99.90;;;;;;5010521;28;20037;-77
2022/09/25 11:35:43;;;;;;;1999.90;999.90;;;20.40;99.90;;;;;;5010900;28;20450;-81
2022/09/25 11:41:10;;;;;;;1999.90;999.90;;;20.40;99.90;;;;;;5007673;28;20071;-81
2022/09/25 11:41:19;;;;;;;1999.90;999.90;;;20.70;99.90;;;;;;4991074;28;20485;-81
2022/09/25 11:44:19;;;;;;;1999.90;999.90;;;20.70;99.90;;;;;;4990852;28;20433;-77
2022/09/25 11:47:00;;;;;;;1999.90;999.90;;;20.60;99.90;;;;;;4991235;28;20465;-77
2022/09/25 11:49:30;;;;;;;1999.90;999.90;;;20.80;99.90;;;;;;4990617;28;20093;-81
2022/09/25 11:52:17;;;;;;;1999.90;999.90;;;20.80;99.90;;;;;;4990631;28;20101;-77
2022/09/25 11:55:01;;;;;;;1999.90;999.90;;;20.50;99.90;;;;;;4988538;28;20159;-77
2022/09/25 11:57:50;;;;;;;1999.90;999.90;;;20.50;99.90;;;;;;4973266;28;20031;-81
2022/09/25 12:00:27;;;;;;;1999.90;999.90;;;20.70;99.90;;;;;;4973427;28;20056;-77
2022/09/25 12:03:14;;;;;;;1999.90;999.90;;;20.70;99.90;;;;;;4973367;28;20030;-81
2022/09/25 12:05:50;;;;;;;1999.90;999.90;;;20.70;99.90;;;;;;4973208;28;20502;-77
2022/09/25 12:08:27;;;;;;;1999.90;999.90;;;21.30;99.90;;;;;;4973565;28;20053;-77
2022/09/25 12:11:03;;;;;;;1999.90;999.90;;;21.30;99.90;;;;;;4972157;28;20015;-81
2022/09/25 12:13:53;;;;;;;1999.90;999.90;;;21.30;99.90;;;;;;4972358;28;20445;-77
2022/09/25 12:16:40;;;;;;;1999.90;999.90;;;20.90;99.90;;;;;;4976228;28;20057;-82
2022/09/25 12:19:26;;;;;;;1999.90;999.90;;;20.40;99.90;;;;;;4991973;28;20078;-82
2022/09/25 12:22:07;;;;;;;1999.90;999.90;;;20.30;99.90;;;;;;4992862;28;20050;-77
2022/09/25 12:24:52;;;;;;;1999.90;999.90;;;20.30;99.90;;;;;;4991108;28;20064;-77
2022/09/25 12:27:47;;;;;;;1999.90;999.90;;;20.30;99.90;;;;;;4992620;28;20093;-81
2022/09/25 12:30:27;;;;;;;1999.90;999.90;;;20.00;99.90;;;;;;4991416;28;20107;-77
2022/09/25 12:33:17;;;;;;;1999.90;999.90;;;19.80;99.90;;;;;;4991134;28;20081;-78
2022/09/25 12:35:49;;;;;;;1999.90;999.90;;;19.90;99.90;;;;;;4991218;28;20034;-77
2022/09/25 12:38:43;;;;;;;1999.90;999.90;;;19.90;99.90;;;;;;4990602;28;20084;-77
2022/09/25 12:41:11;;;;;;;;;;;20.00;99.90;;;;;;4993044;28;20046;-81
2022/09/25 12:43:58;;;;;;;1999.90;999.90;;;19.90;99.90;;;;;;4990976;28;20293;-77
2022/09/25 12:46:52;;;;;;;1999.90;999.90;;;19.70;99.90;;;;;;4991056;28;20532;-82
2022/09/25 12:49:26;;;;;;;1999.90;999.90;;;19.60;99.90;;;;;;4991790;28;20038;-77
2022/09/25 12:51:57;;;;;;;1999.90;999.90;;;19.40;99.90;;;;;;4992352;28;20486;-77